sensor_id;sensor_type;location;lat;lon;timestamp;pressure;altitude;pressure_sealevel;temperature;humidity
48774;BME280;34576;0.000;0.000;2023-05-02T00:03:30;96804.19;;;18.48;65.69
48774;BME280;34576;0.000;0.000;2023-05-02T00:10:31;96800.47;;;18.49;65.12
48774;BME280;34576;0.000;0.000;2023-05-02T00:17:32;96807.41;;;18.50;65.35
48774;BME280;34576;0.000;0.000;2023-05-02T00:24:32;96810.34;;;18.49;65.54
48774;BME280;34576;0.000;0.000;2023-05-02T00:31:32;96809.78;;;18.52;65.04
48774;BME280;34576;0.000;0.000;2023-05-02T00:38:32;96810.06;;;18.50;65.23
48774;BME280;34576;0.000;0.000;2023-05-02T00:45:33;96818.84;;;18.51;65.20
48774;BME280;34576;0.000;0.000;2023-05-02T00:52:33;96820.19;;;18.48;65.54
48774;BME280;34576;0.000;0.000;2023-05-02T00:59:34;96817.50;;;18.48;65.06
48774;BME280;34576;0.000;0.000;2023-05-02T01:13:41;96819.91;;;18.50;65.67
48774;BME280;34576;0.000;0.000;2023-05-02T01:20:42;96821.22;;;18.52;65.65
48774;BME280;34576;0.000;0.000;2023-05-02T01:34:47;96822.28;;;18.51;65.75
48774;BME280;34576;0.000;0.000;2023-05-02T01:41:49;96837.50;;;18.51;65.47
48774;BME280;34576;0.000;0.000;2023-05-02T01:48:51;96834.03;;;18.50;65.04
48774;BME280;34576;0.000;0.000;2023-05-02T01:55:51;96835.38;;;18.48;65.65
48774;BME280;34576;0.000;0.000;2023-05-02T02:02:51;96829.78;;;18.49;65.63
48774;BME280;34576;0.000;0.000;2023-05-02T02:09:53;96830.31;;;18.46;65.84
48774;BME280;34576;0.000;0.000;2023-05-02T02:16:54;96832.44;;;18.49;65.75
48774;BME280;34576;0.000;0.000;2023-05-02T02:23:55;96837.25;;;18.47;65.34
48774;BME280;34576;0.000;0.000;2023-05-02T02:30:56;96839.38;;;18.50;65.77
48774;BME280;34576;0.000;0.000;2023-05-02T02:37:58;96835.38;;;18.48;65.65
48774;BME280;34576;0.000;0.000;2023-05-02T02:45:08;96841.50;;;18.48;65.51
48774;BME280;34576;0.000;0.000;2023-05-02T02:53:14;96844.44;;;18.46;65.75
48774;BME280;34576;0.000;0.000;2023-05-02T02:59:45;96855.91;;;18.47;65.79
48774;BME280;34576;0.000;0.000;2023-05-02T03:06:48;96865.50;;;18.43;65.70
48774;BME280;34576;0.000;0.000;2023-05-02T03:13:48;96857.25;;;18.44;66.31
48774;BME280;34576;0.000;0.000;2023-05-02T03:20:52;96870.56;;;18.44;65.81
48774;BME280;34576;0.000;0.000;2023-05-02T03:27:55;96870.84;;;18.43;65.38
48774;BME280;34576;0.000;0.000;2023-05-02T03:34:56;96876.66;;;18.45;65.83
48774;BME280;34576;0.000;0.000;2023-05-02T03:42:00;96894.81;;;18.43;65.40
48774;BME280;34576;0.000;0.000;2023-05-02T03:49:01;96902.25;;;18.41;65.82
48774;BME280;34576;0.000;0.000;2023-05-02T03:56:01;96902.25;;;18.46;65.61
48774;BME280;34576;0.000;0.000;2023-05-02T04:03:12;96915.50;;;18.56;68.81
48774;BME280;34576;0.000;0.000;2023-05-02T04:10:15;96936.28;;;18.59;69.10
48774;BME280;34576;0.000;0.000;2023-05-02T04:17:23;96951.22;;;18.55;69.78
48774;BME280;34576;0.000;0.000;2023-05-02T04:24:24;96952.81;;;18.56;70.20
48774;BME280;34576;0.000;0.000;2023-05-02T04:31:25;96960.25;;;18.59;70.64
48774;BME280;34576;0.000;0.000;2023-05-02T04:38:26;96957.63;;;18.49;66.63
48774;BME280;34576;0.000;0.000;2023-05-02T04:45:27;96953.88;;;18.60;64.53
48774;BME280;34576;0.000;0.000;2023-05-02T04:52:28;96976.03;;;15.78;64.92
48774;BME280;34576;0.000;0.000;2023-05-02T04:59:29;96977.78;;;15.35;64.83
48774;BME280;34576;0.000;0.000;2023-05-02T05:06:29;96980.00;;;16.08;62.36
48774;BME280;34576;0.000;0.000;2023-05-02T05:13:31;96987.38;;;14.92;64.70
48774;BME280;34576;0.000;0.000;2023-05-02T05:20:31;96985.88;;;17.32;60.23
48774;BME280;34576;0.000;0.000;2023-05-02T05:27:34;96997.63;;;17.62;61.21
48774;BME280;34576;0.000;0.000;2023-05-02T05:34:36;97008.53;;;17.81;61.84
48774;BME280;34576;0.000;0.000;2023-05-02T05:41:37;97020.50;;;17.88;62.18
48774;BME280;34576;0.000;0.000;2023-05-02T05:48:41;97031.16;;;17.88;62.63
48774;BME280;34576;0.000;0.000;2023-05-02T05:55:41;97041.84;;;17.93;63.07
48774;BME280;34576;0.000;0.000;2023-05-02T06:02:42;97043.97;;;17.97;63.30
48774;BME280;34576;0.000;0.000;2023-05-02T06:09:46;97050.38;;;18.01;63.31
48774;BME280;34576;0.000;0.000;2023-05-02T06:16:48;97044.50;;;18.04;63.34
48774;BME280;34576;0.000;0.000;2023-05-02T06:23:48;97050.38;;;18.01;63.87
48774;BME280;34576;0.000;0.000;2023-05-02T06:30:55;97070.59;;;18.07;63.71
48774;BME280;34576;0.000;0.000;2023-05-02T06:37:55;97071.41;;;18.07;64.05
48774;BME280;34576;0.000;0.000;2023-05-02T06:44:56;97074.34;;;18.06;64.04
48774;BME280;34576;0.000;0.000;2023-05-02T06:51:56;97070.34;;;18.03;64.26
48774;BME280;34576;0.000;0.000;2023-05-02T06:58:56;97068.47;;;18.04;64.29
48774;BME280;34576;0.000;0.000;2023-05-02T07:05:56;97090.84;;;18.03;64.50
48774;BME280;34576;0.000;0.000;2023-05-02T07:12:57;97091.63;;;18.03;64.49
48774;BME280;34576;0.000;0.000;2023-05-02T07:19:57;97081.25;;;18.07;64.72
48774;BME280;34576;0.000;0.000;2023-05-02T07:26:57;97093.50;;;18.08;64.51
48774;BME280;34576;0.000;0.000;2023-05-02T07:33:57;97081.78;;;18.09;64.65
48774;BME280;34576;0.000;0.000;2023-05-02T07:40:58;97079.13;;;18.09;64.74
48774;BME280;34576;0.000;0.000;2023-05-02T07:47:59;97086.84;;;18.10;64.81
48774;BME280;34576;0.000;0.000;2023-05-02T07:54:59;97091.38;;;18.10;64.98
48774;BME280;34576;0.000;0.000;2023-05-02T08:01:59;97103.06;;;18.14;64.87
48774;BME280;34576;0.000;0.000;2023-05-02T08:09:00;97094.31;;;18.19;64.54
48774;BME280;34576;0.000;0.000;2023-05-02T08:16:00;97099.34;;;18.15;64.74
48774;BME280;34576;0.000;0.000;2023-05-02T08:23:01;97103.63;;;18.21;64.70
48774;BME280;34576;0.000;0.000;2023-05-02T08:30:01;97109.22;;;18.25;64.36
48774;BME280;34576;0.000;0.000;2023-05-02T08:37:06;97113.19;;;18.22;65.05
48774;BME280;34576;0.000;0.000;2023-05-02T08:44:06;97122.25;;;18.26;64.43
48774;BME280;34576;0.000;0.000;2023-05-02T08:51:11;97128.91;;;18.24;64.72
48774;BME280;34576;0.000;0.000;2023-05-02T08:58:11;97129.19;;;18.27;64.89
48774;BME280;34576;0.000;0.000;2023-05-02T09:05:11;97126.78;;;18.26;64.69
48774;BME280;34576;0.000;0.000;2023-05-02T09:12:23;97137.97;;;18.28;64.78
48774;BME280;34576;0.000;0.000;2023-05-02T09:19:24;97134.78;;;18.31;64.30
48774;BME280;34576;0.000;0.000;2023-05-02T09:26:26;97138.22;;;18.26;64.38
48774;BME280;34576;0.000;0.000;2023-05-02T09:33:32;97137.19;;;18.27;64.36
48774;BME280;34576;0.000;0.000;2023-05-02T09:40:33;97140.91;;;18.26;64.52
48774;BME280;34576;0.000;0.000;2023-05-02T09:47:34;97130.78;;;18.28;64.51
48774;BME280;34576;0.000;0.000;2023-05-02T09:54:35;97135.84;;;18.25;64.81
48774;BME280;34576;0.000;0.000;2023-05-02T10:01:36;97129.19;;;18.27;64.42
48774;BME280;34576;0.000;0.000;2023-05-02T10:08:36;97128.63;;;18.25;64.83
48774;BME280;34576;0.000;0.000;2023-05-02T10:15:41;97135.56;;;18.26;64.66
48774;BME280;34576;0.000;0.000;2023-05-02T10:22:42;97127.59;;;18.26;65.01
48774;BME280;34576;0.000;0.000;2023-05-02T10:29:42;97130.78;;;18.28;64.94
48774;BME280;34576;0.000;0.000;2023-05-02T10:36:43;97128.66;;;18.31;64.94
48774;BME280;34576;0.000;0.000;2023-05-02T10:43:46;97123.59;;;18.29;65.12
48774;BME280;34576;0.000;0.000;2023-05-02T10:50:57;97121.19;;;18.33;64.91
48774;BME280;34576;0.000;0.000;2023-05-02T11:05:06;97099.88;;;18.33;65.06
48774;BME280;34576;0.000;0.000;2023-05-02T11:12:07;97101.22;;;18.35;65.18
48774;BME280;34576;0.000;0.000;2023-05-02T11:19:07;97109.22;;;18.35;65.18
48774;BME280;34576;0.000;0.000;2023-05-02T11:26:19;97108.16;;;18.36;65.22
48774;BME280;34576;0.000;0.000;2023-05-02T11:33:21;97103.88;;;18.35;65.34
48774;BME280;34576;0.000;0.000;2023-05-02T11:40:21;97103.59;;;18.37;65.26
48774;BME280;34576;0.000;0.000;2023-05-02T11:47:22;97104.16;;;18.39;65.27
48774;BME280;34576;0.000;0.000;2023-05-02T11:54:22;97104.16;;;18.39;65.58
48774;BME280;34576;0.000;0.000;2023-05-02T12:01:23;97089.78;;;18.40;65.46
48774;BME280;34576;0.000;0.000;2023-05-02T12:08:24;97095.09;;;18.40;65.84
48774;BME280;34576;0.000;0.000;2023-05-02T12:15:25;97104.94;;;18.39;65.68
48774;BME280;34576;0.000;0.000;2023-05-02T12:22:27;97099.63;;;18.39;65.74
48774;BME280;34576;0.000;0.000;2023-05-02T12:29:37;97094.84;;;18.41;65.80
48774;BME280;34576;0.000;0.000;2023-05-02T12:36:42;97096.69;;;18.41;65.77
48774;BME280;34576;0.000;0.000;2023-05-02T12:43:47;97090.31;;;18.42;65.66
48774;BME280;34576;0.000;0.000;2023-05-02T12:50:48;97091.63;;;18.44;65.73
48774;BME280;34576;0.000;0.000;2023-05-02T12:57:49;97090.56;;;18.45;65.85
48774;BME280;34576;0.000;0.000;2023-05-02T13:04:49;97082.81;;;18.44;65.76
48774;BME280;34576;0.000;0.000;2023-05-02T13:11:49;97084.69;;;18.43;65.66
48774;BME280;34576;0.000;0.000;2023-05-02T13:18:52;97088.97;;;18.44;65.79
48774;BME280;34576;0.000;0.000;2023-05-02T13:25:52;97088.69;;;18.46;65.71
48774;BME280;34576;0.000;0.000;2023-05-02T13:32:52;97078.84;;;18.46;65.55
48774;BME280;34576;0.000;0.000;2023-05-02T13:39:53;97074.06;;;18.49;65.50
48774;BME280;34576;0.000;0.000;2023-05-02T13:46:53;97072.19;;;18.49;65.49
48774;BME280;34576;0.000;0.000;2023-05-02T13:53:54;97069.50;;;18.49;65.53
48774;BME280;34576;0.000;0.000;2023-05-02T14:00:54;97069.50;;;18.49;65.68
48774;BME280;34576;0.000;0.000;2023-05-02T14:07:55;97056.19;;;18.49;65.60
48774;BME280;34576;0.000;0.000;2023-05-02T14:14:56;97057.81;;;18.50;65.51
48774;BME280;34576;0.000;0.000;2023-05-02T14:21:56;97065.78;;;18.50;65.71
48774;BME280;34576;0.000;0.000;2023-05-02T14:28:57;97072.69;;;18.51;65.54
48774;BME280;34576;0.000;0.000;2023-05-02T14:35:57;97079.63;;;18.52;65.47
48774;BME280;34576;0.000;0.000;2023-05-02T14:42:58;97070.03;;;18.51;65.46
48774;BME280;34576;0.000;0.000;2023-05-02T14:49:58;97078.03;;;18.51;65.49
48774;BME280;34576;0.000;0.000;2023-05-02T14:56:59;97068.97;;;18.52;65.53
48774;BME280;34576;0.000;0.000;2023-05-02T15:04:01;97065.25;;;18.53;65.56
48774;BME280;34576;0.000;0.000;2023-05-02T15:11:01;97081.22;;;18.53;65.56
48774;BME280;34576;0.000;0.000;2023-05-02T15:18:02;97091.88;;;18.53;65.43
48774;BME280;34576;0.000;0.000;2023-05-02T15:25:02;97088.44;;;18.53;65.45
48774;BME280;34576;0.000;0.000;2023-05-02T15:32:03;97092.94;;;18.52;65.60
48774;BME280;34576;0.000;0.000;2023-05-02T15:39:03;97091.09;;;18.53;65.51
48774;BME280;34576;0.000;0.000;2023-05-02T15:46:04;97099.09;;;18.53;65.48
48774;BME280;34576;0.000;0.000;2023-05-02T15:53:04;97103.59;;;18.52;65.62
48774;BME280;34576;0.000;0.000;2023-05-02T16:00:05;97108.66;;;18.54;65.63
48774;BME280;34576;0.000;0.000;2023-05-02T16:07:06;97103.34;;;18.54;65.55
48774;BME280;34576;0.000;0.000;2023-05-02T16:14:06;97107.88;;;18.53;65.40
48774;BME280;34576;0.000;0.000;2023-05-02T16:21:07;97105.22;;;18.53;65.43
48774;BME280;34576;0.000;0.000;2023-05-02T16:28:07;97108.66;;;18.54;65.30
48774;BME280;34576;0.000;0.000;2023-05-02T16:35:07;97112.16;;;18.54;65.43
48774;BME280;34576;0.000;0.000;2023-05-02T16:42:11;97120.13;;;18.49;53.51
48774;BME280;34576;0.000;0.000;2023-05-02T16:49:11;97128.38;;;18.48;53.10
48774;BME280;34576;0.000;0.000;2023-05-02T16:56:12;97136.13;;;18.49;54.05
48774;BME280;34576;0.000;0.000;2023-05-02T17:03:12;97139.56;;;18.50;55.38
48774;BME280;34576;0.000;0.000;2023-05-02T17:10:12;97140.66;;;18.49;56.81
48774;BME280;34576;0.000;0.000;2023-05-02T17:17:13;97140.63;;;18.43;55.46
48774;BME280;34576;0.000;0.000;2023-05-02T17:24:13;97144.63;;;18.41;57.87
48774;BME280;34576;0.000;0.000;2023-05-02T17:31:13;97149.44;;;18.39;59.18
48774;BME280;34576;0.000;0.000;2023-05-02T17:38:14;97156.38;;;18.40;59.63
48774;BME280;34576;0.000;0.000;2023-05-02T17:45:15;97168.34;;;18.37;60.24
48774;BME280;34576;0.000;0.000;2023-05-02T17:52:16;97176.59;;;18.41;60.77
48774;BME280;34576;0.000;0.000;2023-05-02T17:59:16;97189.91;;;18.41;61.10
48774;BME280;34576;0.000;0.000;2023-05-02T18:06:17;97195.78;;;18.43;60.52
48774;BME280;34576;0.000;0.000;2023-05-02T18:13:18;97193.41;;;18.41;60.19
48774;BME280;34576;0.000;0.000;2023-05-02T18:20:18;97197.91;;;18.41;59.14
48774;BME280;34576;0.000;0.000;2023-05-02T18:27:18;97209.38;;;18.41;58.25
48774;BME280;34576;0.000;0.000;2023-05-02T18:34:18;97214.16;;;18.39;57.94
48774;BME280;34576;0.000;0.000;2023-05-02T18:41:19;97224.53;;;18.36;58.39
48774;BME280;34576;0.000;0.000;2023-05-02T18:48:19;97229.88;;;18.36;58.29
48774;BME280;34576;0.000;0.000;2023-05-02T18:55:19;97232.25;;;18.32;58.25
48774;BME280;34576;0.000;0.000;2023-05-02T19:02:22;97233.56;;;18.29;57.69
48774;BME280;34576;0.000;0.000;2023-05-02T19:09:23;97253.31;;;18.28;57.69
48774;BME280;34576;0.000;0.000;2023-05-02T19:16:23;97251.13;;;18.25;57.97
48774;BME280;34576;0.000;0.000;2023-05-02T19:23:26;97259.13;;;18.25;57.66
48774;BME280;34576;0.000;0.000;2023-05-02T19:30:26;97261.00;;;18.25;57.75
48774;BME280;34576;0.000;0.000;2023-05-02T19:37:26;97268.72;;;18.21;57.64
48774;BME280;34576;0.000;0.000;2023-05-02T19:44:26;97282.28;;;18.20;57.55
48774;BME280;34576;0.000;0.000;2023-05-02T19:51:27;97288.72;;;18.34;59.20
48774;BME280;34576;0.000;0.000;2023-05-02T19:58:28;97291.63;;;18.33;59.66
48774;BME280;34576;0.000;0.000;2023-05-02T20:05:29;97299.38;;;18.34;59.83
48774;BME280;34576;0.000;0.000;2023-05-02T20:12:29;97307.91;;;17.78;57.96
48774;BME280;34576;0.000;0.000;2023-05-02T20:19:29;97310.00;;;18.29;60.06
48774;BME280;34576;0.000;0.000;2023-05-02T20:26:31;97308.69;;;18.32;60.51
48774;BME280;34576;0.000;0.000;2023-05-02T20:33:32;97317.19;;;18.23;60.78
48774;BME280;34576;0.000;0.000;2023-05-02T20:40:33;97313.72;;;18.28;60.88
48774;BME280;34576;0.000;0.000;2023-05-02T20:47:33;97315.59;;;18.27;61.46
48774;BME280;34576;0.000;0.000;2023-05-02T20:54:34;97308.13;;;18.29;61.34
48774;BME280;34576;0.000;0.000;2023-05-02T21:01:34;97305.22;;;18.31;62.07
48774;BME280;34576;0.000;0.000;2023-05-02T21:08:34;97302.81;;;18.29;62.26
48774;BME280;34576;0.000;0.000;2023-05-02T21:15:35;97309.75;;;18.31;62.46
48774;BME280;34576;0.000;0.000;2023-05-02T21:22:35;97310.59;;;18.46;62.96
48774;BME280;34576;0.000;0.000;2023-05-02T21:29:36;97316.16;;;18.35;62.37
48774;BME280;34576;0.000;0.000;2023-05-02T21:36:36;97322.00;;;18.32;62.57
48774;BME280;34576;0.000;0.000;2023-05-02T21:43:37;97315.59;;;18.33;62.79
48774;BME280;34576;0.000;0.000;2023-05-02T21:50:38;97312.72;;;18.34;62.65
48774;BME280;34576;0.000;0.000;2023-05-02T21:57:39;97308.97;;;18.35;63.37
48774;BME280;34576;0.000;0.000;2023-05-02T22:04:39;97311.63;;;18.35;62.82
48774;BME280;34576;0.000;0.000;2023-05-02T22:11:40;97314.03;;;18.32;63.41
48774;BME280;34576;0.000;0.000;2023-05-02T22:18:41;97311.09;;;18.33;63.62
48774;BME280;34576;0.000;0.000;2023-05-02T22:25:43;97311.88;;;18.34;63.24
48774;BME280;34576;0.000;0.000;2023-05-02T22:32:45;97306.03;;;18.37;63.57
48774;BME280;34576;0.000;0.000;2023-05-02T22:39:45;97311.34;;;18.37;63.17
48774;BME280;34576;0.000;0.000;2023-05-02T22:46:45;97314.03;;;18.37;63.57
48774;BME280;34576;0.000;0.000;2023-05-02T22:53:46;97310.84;;;18.40;63.78
48774;BME280;34576;0.000;0.000;2023-05-02T23:00:46;97316.97;;;18.40;63.64
48774;BME280;34576;0.000;0.000;2023-05-02T23:07:46;97307.94;;;18.41;63.68
48774;BME280;34576;0.000;0.000;2023-05-02T23:14:47;97316.19;;;18.40;63.81
48774;BME280;34576;0.000;0.000;2023-05-02T23:21:47;97304.97;;;18.38;64.19
48774;BME280;34576;0.000;0.000;2023-05-02T23:28:48;97313.22;;;18.36;63.98
48774;BME280;34576;0.000;0.000;2023-05-02T23:35:48;97316.97;;;18.40;64.12
48774;BME280;34576;0.000;0.000;2023-05-02T23:42:49;97312.69;;;18.39;64.52
48774;BME280;34576;0.000;0.000;2023-05-02T23:49:49;97312.19;;;18.42;64.67
48774;BME280;34576;0.000;0.000;2023-05-02T23:56:50;97312.44;;;18.41;64.92
